Time;durP1;ratioP1;P1;durP2;ratioP2;P2;SDS_P1;SDS_P2;PMS_P1;PMS_P2;Temp;Humidity;BMP_temperature;BMP_pressure;BME280_temperature;BME280_humidity;BME280_pressure;Samples;Min_cycle;Max_cycle;Signal;HPM_P1;HPM_P2
2022/12/04 00:01:27;;;;;;;74.20;33.20;;;;;;;8.92;92.22;100963.56;4962399;28;20058;-83
2022/12/04 00:03:56;;;;;;;81.15;35.03;;;;;;;9.02;92.46;100987.56;4979031;28;20062;-82
2022/12/04 00:06:24;;;;;;;90.25;33.95;;;;;;;8.95;92.29;100952.75;4980037;28;20050;-82
2022/12/04 00:08:52;;;;;;;79.97;33.42;;;;;;;9.11;91.92;100978.06;4979610;28;20479;-84
2022/12/04 00:11:37;;;;;;;65.65;32.35;;;;;;;9.06;92.40;100981.06;4979214;28;20060;-83
2022/12/04 00:14:04;;;;;;;66.10;31.77;;;;;;;8.88;92.49;100955.97;4981559;28;20389;-84
2022/12/04 00:16:33;;;;;;;63.50;31.70;;;;;;;8.80;92.03;100948.63;4982289;28;20057;-84
2022/12/04 00:19:04;;;;;;;64.97;32.50;;;;;;;8.76;92.60;100932.16;4977504;28;20324;-83
2022/12/04 00:21:33;;;;;;;64.63;32.60;;;;;;;8.65;92.53;100903.00;4980664;28;20298;-82
2022/12/04 00:24:00;;;;;;;60.58;30.83;;;;;;;8.66;92.43;100902.03;4982007;28;20496;-83
2022/12/04 00:26:30;;;;;;;60.60;30.35;;;;;;;8.18;92.10;100814.81;4980468;28;20057;-80
2022/12/04 00:28:59;;;;;;;60.42;29.98;;;;;;;8.63;91.96;100889.03;4981013;28;20370;-83
2022/12/04 00:31:28;;;;;;;62.00;29.88;;;;;;;8.47;91.97;100862.03;4981742;28;20054;-83
2022/12/04 00:33:55;;;;;;;63.20;29.90;;;;;;;9.21;91.47;100968.44;4976851;28;20531;-83
2022/12/04 00:36:24;;;;;;;58.90;29.67;;;;;;;7.91;91.21;100746.34;4978331;28;20464;-82
2022/12/04 00:38:54;;;;;;;50.05;28.23;;;;;;;8.27;90.49;100792.94;4970701;28;20132;-82
2022/12/04 00:41:23;;;;;;;55.95;29.10;;;;;;;8.75;90.81;100882.78;4959999;28;20053;-83
2022/12/04 00:43:50;;;;;;;54.38;27.38;;;;;;;7.93;90.87;100744.41;4960263;28;20210;-83
2022/12/04 00:46:18;;;;;;;60.95;28.70;;;;;;;8.91;91.67;100916.06;4960557;28;20305;-82
2022/12/04 00:48:45;;;;;;;54.80;27.88;;;;;;;8.55;91.96;100855.22;4960831;28;20511;-84
2022/12/04 00:51:16;;;;;;;55.75;27.98;;;;;;;8.08;91.79;100755.63;4964569;28;20050;-84
2022/12/04 00:53:43;;;;;;;56.58;28.30;;;;;;;8.59;91.78;100844.38;4964717;28;20094;-83
2022/12/04 00:56:14;;;;;;;49.85;27.33;;;;;;;8.67;91.87;100864.03;4960622;28;20299;-83
2022/12/04 00:58:44;;;;;;;48.15;25.08;;;;;;;8.42;92.42;100837.75;4962521;28;20636;-83
2022/12/04 01:01:17;;;;;;;48.75;26.75;;;;;;;7.85;92.35;100737.06;4960573;28;20053;-83
2022/12/04 01:03:48;;;;;;;53.15;25.98;;;;;;;8.58;92.58;100838.25;4997132;28;20092;-82
2022/12/04 01:06:30;;;;;;;46.55;23.95;;;;;;;7.77;92.15;100696.31;4982203;28;20049;-83
2022/12/04 01:08:58;;;;;;;39.42;21.15;;;;;;;8.70;92.02;100863.78;4990899;28;20058;-83
2022/12/04 01:11:26;;;;;;;35.40;22.13;;;;;;;7.83;91.83;100715.19;5004726;28;20549;-82
2022/12/04 01:13:54;;;;;;;37.20;21.65;;;;;;;9.14;91.66;100925.69;5021212;28;20045;-83
2022/12/04 01:16:24;;;;;;;35.70;19.63;;;;;;;9.16;91.53;100936.19;5002560;28;20159;-82
2022/12/04 01:18:51;;;;;;;35.22;20.48;;;;;;;8.77;92.63;100870.28;5001896;28;20208;-82
2022/12/04 01:21:18;;;;;;;34.78;16.88;;;;;;;9.12;92.22;100895.81;5007152;28;20060;-84
2022/12/04 01:23:48;;;;;;;28.00;16.30;;;;;;;9.18;91.67;100895.38;5002035;28;20671;-81
2022/12/04 01:26:15;;;;;;;24.42;15.85;;;;;;;9.14;91.11;100866.59;5001850;28;20056;-82
2022/12/04 01:28:45;;;;;;;25.83;15.95;;;;;;;9.07;91.18;100862.72;4999998;28;20084;-82
2022/12/04 01:31:15;;;;;;;22.52;14.60;;;;;;;9.24;91.24;100894.03;5003553;28;20503;-83
2022/12/04 01:33:43;;;;;;;20.60;14.82;;;;;;;8.91;91.37;100837.47;5002526;28;20445;-83
2022/12/04 01:36:18;;;;;;;23.10;15.35;;;;;;;8.94;91.74;100839.03;5001093;28;20284;-81
2022/12/04 01:38:48;;;;;;;20.27;14.18;;;;;;;9.22;92.43;100884.53;5011076;28;20060;-80
2022/12/04 01:41:24;;;;;;;19.25;13.35;;;;;;;9.22;90.69;100858.03;4997837;28;20073;-83
2022/12/04 01:44:12;;;;;;;18.63;12.38;;;;;;;9.36;90.09;100876.31;4996783;28;20049;-81
2022/12/04 01:46:41;;;;;;;15.57;12.43;;;;;;;9.14;90.21;100835.63;5000546;28;20310;-82
2022/12/04 01:49:24;;;;;;;18.73;12.07;;;;;;;9.26;90.38;100873.56;4998868;28;20060;-82
2022/12/04 01:52:05;;;;;;;16.58;11.52;;;;;;;9.25;90.60;100878.97;4998100;28;20671;-82
2022/12/04 01:54:38;;;;;;;16.23;11.98;;;;;;;9.03;90.71;100842.75;4996845;28;20451;-82
2022/12/04 01:57:13;;;;;;;16.80;12.38;;;;;;;9.05;91.36;100841.66;5001653;28;20136;-82
2022/12/04 01:59:50;;;;;;;13.00;10.50;;;;;;;9.24;90.66;100858.75;4974817;28;20140;-82
2022/12/04 02:02:26;;;;;;;14.35;10.57;;;;;;;9.03;89.84;100806.53;4956637;28;20057;-83
2022/12/04 02:04:53;;;;;;;15.85;12.00;;;;;;;9.26;89.99;100859.47;4959453;28;20050;-83
2022/12/04 02:07:23;;;;;;;17.33;12.75;;;;;;;9.14;91.27;100853.34;4956816;28;20506;-81
2022/12/04 02:09:54;;;;;;;15.30;11.70;;;;;;;8.96;90.90;100811.47;4974780;28;20050;-82
2022/12/04 02:12:42;;;;;;;13.25;11.00;;;;;;;9.16;91.17;100835.53;4979218;28;20141;-82
2022/12/04 02:15:23;;;;;;;16.98;12.02;;;;;;;9.17;90.91;100830.13;4978148;28;20056;-82
2022/12/04 02:17:56;;;;;;;16.42;12.73;;;;;;;9.13;90.78;100817.25;4979734;28;20578;-83
2022/12/04 02:20:40;;;;;;;13.05;11.52;;;;;;;9.15;91.00;100808.19;4978864;28;20069;-84
2022/12/04 02:23:31;;;;;;;16.25;12.60;;;;;;;9.17;90.94;100808.06;4976179;28;20455;-84
2022/12/04 02:26:07;;;;;;;15.27;12.43;;;;;;;9.20;90.22;100821.91;4976707;28;20399;-82
2022/12/04 02:28:46;;;;;;;17.33;12.98;;;;;;;9.20;90.49;100813.13;4979636;28;20611;-84
2022/12/04 02:31:20;;;;;;;17.05;13.00;;;;;;;8.87;90.87;100742.50;4976419;28;20196;-83
2022/12/04 02:34:02;;;;;;;17.80;13.40;;;;;;;9.25;90.26;100804.78;4941569;28;20526;-84
2022/12/04 02:36:35;;;;;;;19.30;13.75;;;;;;;9.17;90.35;100795.69;4937642;28;20102;-84
2022/12/04 02:39:19;;;;;;;18.85;13.43;;;;;;;9.14;90.57;100787.97;4958241;28;20062;-84
2022/12/04 02:41:56;;;;;;;17.13;13.55;;;;;;;8.89;90.34;100746.72;4977150;28;20244;-85
2022/12/04 02:44:51;;;;;;;19.05;14.18;;;;;;;8.85;90.44;100734.69;4980204;28;20368;-83
2022/12/04 02:47:26;;;;;;;20.48;14.32;;;;;;;8.84;91.57;100740.94;4977456;28;20049;-83
2022/12/04 02:50:00;;;;;;;18.85;13.93;;;;;;;9.00;91.64;100769.69;4975357;28;20515;-83
2022/12/04 02:52:41;;;;;;;20.02;14.00;;;;;;;9.00;91.29;100743.19;4978659;28;20747;-84
2022/12/04 02:55:30;;;;;;;19.55;14.20;;;;;;;9.25;90.58;100768.56;4979834;28;20085;-83
2022/12/04 02:58:10;;;;;;;19.88;14.25;;;;;;;8.72;90.79;100711.00;4975667;28;20646;-83
2022/12/04 03:00:43;;;;;;;22.15;14.68;;;;;;;9.09;91.09;100763.66;4960481;28;20156;-83
2022/12/04 03:03:25;;;;;;;24.25;15.88;;;;;;;9.11;91.09;100769.66;4975681;28;20288;-83
2022/12/04 03:06:06;;;;;;;19.38;14.90;;;;;;;9.08;91.52;100777.88;4963667;28;20516;-83
2022/12/04 03:08:48;;;;;;;20.23;15.15;;;;;;;8.49;90.89;100665.16;4990366;28;20049;-83
2022/12/04 03:11:20;;;;;;;17.83;13.82;;;;;;;8.95;91.43;100751.50;5005433;28;20079;-84
2022/12/04 03:13:58;;;;;;;21.57;15.07;;;;;;;9.07;91.75;100770.03;5006092;28;20592;-84
2022/12/04 03:16:34;;;;;;;17.92;14.52;;;;;;;8.21;91.98;100629.44;5001557;28;20408;-83
2022/12/04 03:19:17;;;;;;;29.35;14.65;;;;;;;9.01;92.37;100765.25;5000611;28;20053;-83
2022/12/04 03:21:53;;;;;;;17.17;12.55;;;;;;;9.14;91.63;100771.22;5004254;28;20461;-84
2022/12/04 03:24:29;;;;;;;17.80;13.73;;;;;;;9.12;91.50;100789.03;5003927;28;20859;-83
2022/12/04 03:27:08;;;;;;;18.25;14.43;;;;;;;9.10;91.94;100781.25;5004599;28;20522;-84
2022/12/04 03:30:09;;;;;;;17.33;12.25;;;;;;;9.14;92.13;100780.00;5004029;28;20080;-82
2022/12/04 03:33:01;;;;;;;14.52;11.80;;;;;;;9.18;91.38;100772.69;4988330;28;20060;-84
2022/12/04 03:35:38;;;;;;;12.02;10.00;;;;;;;9.16;90.29;100748.13;4998611;28;20053;-82
2022/12/04 03:38:20;;;;;;;14.70;10.57;;;;;;;8.99;90.09;100741.53;4984392;28;20340;-84
2022/12/04 03:41:00;;;;;;;13.60;10.40;;;;;;;9.25;90.58;100754.47;5005758;28;20056;-83
2022/12/04 03:43:47;;;;;;;11.82;9.43;;;;;;;9.32;90.82;100780.34;5022343;28;20351;-80
2022/12/04 03:46:31;;;;;;;9.48;7.68;;;;;;;9.32;90.06;100763.59;5026259;28;20045;-84
2022/12/04 03:49:16;;;;;;;9.70;7.93;;;;;;;9.21;90.52;100761.81;5034956;28;20122;-84
2022/12/04 03:52:03;;;;;;;11.20;8.00;;;;;;;9.19;90.95;100737.25;5009841;28;20053;-84
2022/12/04 03:54:39;;;;;;;9.48;7.82;;;;;;;9.36;89.84;100757.09;5017186;28;20333;-84
2022/12/04 03:57:14;;;;;;;9.63;7.53;;;;;;;9.02;90.59;100735.97;5003242;28;20049;-83
2022/12/04 03:59:51;;;;;;;10.02;7.60;;;;;;;9.38;89.95;100763.13;4984532;28;20045;-82
2022/12/04 04:02:24;;;;;;;8.93;7.70;;;;;;;9.32;89.30;100751.22;4982429;28;20923;-84
2022/12/04 04:04:57;;;;;;;10.75;7.43;;;;;;;9.30;90.03;100749.66;4983107;28;20401;-84
2022/12/04 04:07:42;;;;;;;12.85;7.20;;;;;;;9.31;89.78;100767.22;4981514;28;20467;-83
2022/12/04 04:10:18;;;;;;;13.63;6.85;;;;;;;8.76;89.77;100688.63;4983662;28;20152;-84
2022/12/04 04:24:36;;;;;;;7.70;5.53;;;;;;;9.02;90.94;100781.00;4999443;28;20458;-83
2022/12/04 04:27:04;;;;;;;6.22;5.13;;;;;;;9.27;90.43;100781.69;4982796;28;20290;-84
2022/12/04 04:29:34;;;;;;;6.70;5.22;;;;;;;8.73;89.60;100695.94;4979513;28;20049;-85
2022/12/04 04:32:10;;;;;;;5.63;5.10;;;;;;;9.27;89.19;100771.94;4980195;28;20080;-83
2022/12/04 04:34:58;;;;;;;6.00;5.05;;;;;;;9.28;88.98;100767.47;4981122;28;20053;-85
2022/12/04 04:37:37;;;;;;;6.57;5.43;;;;;;;9.16;89.53;100759.53;4983877;28;20982;-83
2022/12/04 04:40:15;;;;;;;5.80;5.30;;;;;;;9.05;89.16;100734.88;5012527;28;20138;-84
2022/12/04 04:43:05;;;;;;;5.43;4.93;;;;;;;8.89;88.11;100711.47;4999303;28;20049;-83
2022/12/04 04:45:37;;;;;;;5.07;4.57;;;;;;;9.18;88.87;100762.91;4999812;28;20122;-82
2022/12/04 04:48:09;;;;;;;;;;;;;;;9.16;89.32;100770.13;4999959;28;20401;-83
2022/12/04 04:50:37;;;;;;;6.65;5.93;;;;;;;8.83;88.92;100733.13;5000862;28;20400;-82
2022/12/04 04:53:08;;;;;;;6.60;5.85;;;;;;;9.06;89.07;100761.25;5001717;28;20388;-83
2022/12/04 04:55:35;;;;;;;8.45;7.55;;;;;;;8.99;90.08;100747.66;4999390;28;20130;-84
2022/12/04 04:58:06;;;;;;;7.68;6.95;;;;;;;8.70;89.42;100699.69;4992835;28;20037;-83
2022/12/04 05:00:35;;;;;;;8.93;7.97;;;;;;;9.02;89.76;100751.88;4982131;28;20407;-83
2022/12/04 05:03:02;;;;;;;13.10;8.52;;;;;;;9.07;89.83;100756.78;4983873;28;20068;-84
2022/12/04 05:05:28;;;;;;;8.57;7.65;;;;;;;9.04;89.46;100749.94;4983443;28;20060;-82
2022/12/04 05:07:55;;;;;;;9.98;8.05;;;;;;;8.92;89.80;100729.75;4981353;28;20103;-82
2022/12/04 05:10:22;;;;;;;8.05;7.30;;;;;;;8.56;90.52;100676.94;4962156;28;20418;-84
2022/12/04 05:12:48;;;;;;;6.70;5.72;;;;;;;8.94;90.56;100712.75;4959351;28;20058;-83
2022/12/04 05:15:15;;;;;;;6.40;5.53;;;;;;;9.01;89.73;100715.78;4962516;28;20088;-84
2022/12/04 05:17:42;;;;;;;5.72;5.13;;;;;;;8.67;90.12;100673.47;4976184;28;20072;-82
2022/12/04 05:20:10;;;;;;;5.50;5.00;;;;;;;8.77;89.56;100679.69;4960643;28;20506;-82
2022/12/04 05:22:39;;;;;;;5.10;4.50;;;;;;;8.81;89.37;100679.44;4962006;28;20362;-83
2022/12/04 05:25:06;;;;;;;6.18;4.45;;;;;;;8.88;89.98;100701.81;4979391;28;20085;-83
2022/12/04 05:27:33;;;;;;;4.70;4.30;;;;;;;8.31;89.34;100617.19;4961376;28;20111;-83
2022/12/04 05:30:00;;;;;;;4.65;4.25;;;;;;;8.74;89.55;100687.91;4979294;28;20057;-82
2022/12/04 05:32:31;;;;;;;5.72;4.38;;;;;;;8.73;89.82;100702.06;4972525;28;20606;-83
2022/12/04 05:34:58;;;;;;;4.68;4.22;;;;;;;8.72;89.98;100700.41;4980568;28;20057;-84
2022/12/04 05:37:25;;;;;;;5.07;4.60;;;;;;;8.72;90.78;100718.94;5001869;28;20068;-83
2022/12/04 05:39:52;;;;;;;5.53;5.03;;;;;;;8.76;89.67;100708.94;5023050;28;20065;-84
2022/12/04 05:42:19;;;;;;;4.95;4.00;;;;;;;9.01;89.17;100733.47;5023870;28;20376;-83
2022/12/04 05:44:47;;;;;;;5.45;4.82;;;;;;;8.93;89.63;100736.72;5020101;28;20740;-83
2022/12/04 05:47:15;;;;;;;5.50;4.88;;;;;;;8.85;89.94;100717.97;5002195;28;20158;-83
2022/12/04 05:49:42;;;;;;;4.80;4.40;;;;;;;8.90;89.92;100731.66;5001871;28;20482;-82
2022/12/04 05:52:09;;;;;;;5.40;4.90;;;;;;;8.82;90.01;100724.34;4989775;28;20057;-81
2022/12/04 05:54:36;;;;;;;5.70;5.20;;;;;;;8.08;89.56;100624.28;4984114;28;20052;-84
2022/12/04 05:57:03;;;;;;;5.80;5.30;;;;;;;8.71;90.52;100727.84;4981055;28;20053;-84
2022/12/04 05:59:31;;;;;;;8.63;7.03;;;;;;;8.89;90.08;100753.81;5000941;28;20066;-83
2022/12/04 06:01:58;;;;;;;7.93;7.18;;;;;;;8.77;90.02;100740.59;4981347;28;20211;-83
2022/12/04 06:04:25;;;;;;;8.52;7.72;;;;;;;8.92;90.36;100772.09;4979934;28;20049;-84
2022/12/04 06:06:54;;;;;;;9.07;8.35;;;;;;;8.92;90.34;100766.81;4982097;28;20393;-82
2022/12/04 06:09:25;;;;;;;11.15;9.07;;;;;;;8.29;89.72;100657.94;4994061;28;20066;-84
2022/12/04 06:11:56;;;;;;;10.25;9.15;;;;;;;7.61;89.83;100546.03;4997251;28;20254;-83
2022/12/04 06:14:23;;;;;;;9.93;8.98;;;;;;;8.89;90.12;100775.84;4979967;28;20053;-82
2022/12/04 06:16:49;;;;;;;10.18;8.93;;;;;;;8.74;90.28;100747.94;4979476;28;20067;-83
2022/12/04 06:19:18;;;;;;;12.07;10.90;;;;;;;9.03;90.00;100772.09;4981886;28;20051;-83
2022/12/04 06:21:49;;;;;;;10.90;9.82;;;;;;;8.59;88.58;100696.19;4980513;28;20057;-82
2022/12/04 06:24:22;;;;;;;13.23;11.27;;;;;;;8.75;87.78;100731.06;4999155;28;20053;-81
2022/12/04 06:26:58;;;;;;;13.38;11.45;;;;;;;9.00;89.09;100785.56;4982518;28;20045;-82
2022/12/04 06:29:45;;;;;;;14.27;11.80;;;;;;;8.95;89.36;100782.44;5001115;28;20053;-80
2022/12/04 06:32:11;;;;;;;12.35;11.05;;;;;;;9.06;88.74;100785.09;4982378;28;20137;-82
2022/12/04 06:34:52;;;;;;;13.05;11.50;;;;;;;8.99;88.46;100765.34;4985489;28;20505;-82
2022/12/04 06:37:27;;;;;;;14.45;12.98;;;;;;;9.03;87.96;100780.03;5001590;28;20137;-81
2022/12/04 06:39:54;;;;;;;14.50;12.98;;;;;;;8.59;88.57;100710.25;5017391;28;20234;-81
2022/12/04 06:42:27;;;;;;;18.17;13.45;;;;;;;8.67;88.52;100728.22;4985556;28;20065;-80
2022/12/04 06:44:54;;;;;;;15.90;13.18;;;;;;;8.12;88.66;100652.16;5001771;28;20103;-81
2022/12/04 06:47:24;;;;;;;18.35;13.55;;;;;;;8.84;89.07;100774.53;5000649;28;20045;-82
2022/12/04 06:49:56;;;;;;;14.60;13.10;;;;;;;8.73;89.52;100764.75;5000149;28;20049;-81
2022/12/04 06:52:24;;;;;;;17.75;14.27;;;;;;;8.90;88.92;100774.88;5000526;28;20419;-82
2022/12/04 06:54:51;;;;;;;16.77;14.02;;;;;;;8.76;88.56;100756.56;4999993;28;20879;-81
2022/12/04 06:57:17;;;;;;;17.30;13.70;;;;;;;8.52;87.84;100701.16;4999081;28;20057;-76
2022/12/04 06:59:46;;;;;;;18.25;14.45;;;;;;;9.04;87.36;100792.31;4981281;28;20499;-77
2022/12/04 07:02:13;;;;;;;21.13;15.18;;;;;;;9.13;87.84;100807.47;4978445;28;20520;-77
2022/12/04 07:04:40;;;;;;;17.48;15.05;;;;;;;9.15;86.80;100810.84;4982164;28;20324;-77
2022/12/04 07:07:08;;;;;;;20.42;16.35;;;;;;;9.10;87.01;100791.84;4994392;28;20045;-76
2022/12/04 07:09:40;;;;;;;18.13;14.63;;;;;;;8.99;86.96;100757.41;4999746;28;20045;-77
2022/12/04 07:12:07;;;;;;;21.35;16.35;;;;;;;8.91;86.42;100754.53;4985416;28;20503;-77
2022/12/04 07:14:34;;;;;;;22.27;15.52;;;;;;;9.23;86.43;100828.78;4998158;28;20501;-78
2022/12/04 07:17:00;;;;;;;23.75;17.20;;;;;;;9.17;86.95;100808.94;4989926;28;20053;-78
2022/12/04 07:19:27;;;;;;;22.65;16.63;;;;;;;9.04;86.93;100802.06;4994173;28;20386;-77
2022/12/04 07:21:54;;;;;;;21.75;16.48;;;;;;;8.87;87.52;100808.69;4995438;28;20915;-77
2022/12/04 07:24:20;;;;;;;19.58;15.40;;;;;;;8.89;87.00;100820.84;4995756;28;20668;-77
2022/12/04 07:26:54;;;;;;;20.48;16.15;;;;;;;8.95;87.89;100849.47;4988484;28;20195;-78
2022/12/04 07:29:21;;;;;;;21.55;15.85;;;;;;;8.91;88.53;100818.09;4981005;28;20593;-78
2022/12/04 07:31:50;;;;;;;19.48;14.77;;;;;;;9.13;88.26;100849.84;4980675;28;20048;-78
2022/12/04 07:34:20;;;;;;;16.25;14.07;;;;;;;9.21;87.79;100859.84;4981897;28;20050;-77
2022/12/04 07:36:47;;;;;;;17.10;14.02;;;;;;;9.29;87.55;100853.94;4985429;28;20053;-77
2022/12/04 07:39:16;;;;;;;15.63;13.07;;;;;;;9.04;86.07;100832.03;5000659;28;20444;-78
2022/12/04 07:41:42;;;;;;;16.27;13.10;;;;;;;8.78;87.14;100813.72;4986885;28;20441;-78
2022/12/04 07:44:09;;;;;;;17.25;13.85;;;;;;;9.11;87.33;100862.38;4990141;28;20053;-77
2022/12/04 07:46:36;;;;;;;13.60;12.15;;;;;;;9.02;87.04;100841.91;4979986;28;20135;-77
2022/12/04 07:49:03;;;;;;;14.48;12.52;;;;;;;9.30;87.37;100869.72;4984654;28;20576;-78
2022/12/04 07:51:31;;;;;;;15.95;13.05;;;;;;;9.13;86.62;100839.25;4985179;28;20053;-78
2022/12/04 07:53:58;;;;;;;13.88;12.38;;;;;;;9.25;85.79;100850.69;4977330;28;20527;-79
2022/12/04 07:56:30;;;;;;;14.48;12.40;;;;;;;9.28;85.88;100871.63;4980382;28;20053;-78
2022/12/04 07:58:58;;;;;;;17.48;12.80;;;;;;;9.14;86.05;100864.78;4976914;28;20508;-78
2022/12/04 08:01:25;;;;;;;16.10;14.18;;;;;;;9.13;86.83;100879.00;4979759;28;20362;-77
2022/12/04 08:03:57;;;;;;;15.20;12.25;;;;;;;9.29;87.13;100875.13;4976613;28;20071;-78
2022/12/04 08:06:25;;;;;;;15.13;13.13;;;;;;;9.16;85.65;100843.47;4996951;28;20532;-77
2022/12/04 08:08:56;;;;;;;17.15;13.48;;;;;;;8.62;86.22;100781.50;4996781;28;20589;-78
2022/12/04 08:11:24;;;;;;;18.80;14.32;;;;;;;9.25;86.08;100889.56;4994796;28;20504;-79
2022/12/04 08:14:03;;;;;;;18.42;15.32;;;;;;;9.23;86.19;100892.34;4988596;28;20033;-79
2022/12/04 08:16:32;;;;;;;17.80;15.10;;;;;;;9.00;86.58;100854.41;4980206;28;20262;-80
2022/12/04 08:18:59;;;;;;;18.05;15.02;;;;;;;9.30;86.18;100913.91;4997103;28;20045;-79
2022/12/04 08:21:30;;;;;;;17.38;13.57;;;;;;;9.37;85.91;100909.81;4979024;28;20057;-76
2022/12/04 08:23:58;;;;;;;18.65;15.73;;;;;;;9.22;85.72;100897.75;4975486;28;20077;-79
2022/12/04 08:26:27;;;;;;;17.90;15.35;;;;;;;9.32;86.14;100911.97;4978818;28;20085;-78
2022/12/04 08:28:57;;;;;;;20.58;17.02;;;;;;;9.37;85.37;100905.38;4976209;28;20472;-79
2022/12/04 08:31:29;;;;;;;17.92;13.88;;;;;;;8.75;85.44;100802.56;4980682;28;20057;-76
2022/12/04 08:34:00;;;;;;;19.45;14.73;;;;;;;9.30;85.74;100914.75;4996801;28;20128;-79
2022/12/04 08:36:29;;;;;;;20.13;15.60;;;;;;;9.07;86.06;100876.81;4980211;28;20064;-79
2022/12/04 08:38:56;;;;;;;23.23;15.93;;;;;;;8.87;86.37;100859.84;4976623;28;20493;-79
2022/12/04 08:41:25;;;;;;;21.17;15.85;;;;;;;9.20;87.27;100911.97;4978309;28;20100;-79
2022/12/04 08:43:53;;;;;;;20.80;15.40;;;;;;;9.28;87.27;100915.84;4993323;28;20083;-80
2022/12/04 08:46:21;;;;;;;24.85;16.55;;;;;;;9.17;86.48;100911.38;4995239;28;20090;-78
2022/12/04 08:48:57;;;;;;;18.85;15.10;;;;;;;9.19;87.53;100906.78;4994522;28;20052;-78
2022/12/04 08:51:28;;;;;;;23.77;16.33;;;;;;;9.33;85.82;100919.81;4981648;28;20153;-79
2022/12/04 08:53:59;;;;;;;21.33;15.60;;;;;;;9.18;86.32;100905.97;4979756;28;20400;-79
2022/12/04 08:56:28;;;;;;;19.58;14.45;;;;;;;9.41;85.95;100940.41;4978082;28;20065;-79
2022/12/04 08:58:59;;;;;;;17.63;14.45;;;;;;;9.30;86.30;100930.66;4973328;28;20445;-77
2022/12/04 09:01:28;;;;;;;21.48;15.27;;;;;;;8.74;85.52;100844.06;4974559;28;20579;-77
2022/12/04 09:03:55;;;;;;;21.60;15.88;;;;;;;9.32;85.71;100939.31;4961383;28;20061;-79
2022/12/04 09:06:24;;;;;;;18.92;13.95;;;;;;;9.35;86.08;100943.53;4993536;28;20635;-78
2022/12/04 09:08:53;;;;;;;16.52;13.48;;;;;;;9.38;86.17;100943.28;4986677;28;20438;-76
2022/12/04 09:11:23;;;;;;;21.95;15.27;;;;;;;9.10;86.43;100913.66;5000600;28;20045;-79
2022/12/04 09:13:50;;;;;;;19.15;15.35;;;;;;;9.32;86.28;100949.06;4998860;28;20657;-78
2022/12/04 09:16:21;;;;;;;21.30;15.18;;;;;;;9.41;86.76;100964.25;4997735;28;20420;-78
2022/12/04 09:18:48;;;;;;;21.75;15.73;;;;;;;9.43;86.23;100954.38;4998975;28;20053;-78
2022/12/04 09:21:17;;;;;;;21.42;15.30;;;;;;;9.33;86.62;100929.56;4994980;28;20453;-79
2022/12/04 09:23:45;;;;;;;21.98;16.00;;;;;;;9.26;85.96;100917.75;4999761;28;20173;-78
2022/12/04 09:26:23;;;;;;;21.85;16.17;;;;;;;9.51;85.97;100969.66;4997681;28;20057;-79
2022/12/04 09:28:53;;;;;;;27.55;16.58;;;;;;;9.35;85.96;100962.94;5013402;28;20049;-79
2022/12/04 09:31:30;;;;;;;21.15;15.85;;;;;;;9.53;87.10;100981.84;5033076;28;20065;-78
2022/12/04 09:34:04;;;;;;;25.77;17.55;;;;;;;9.51;86.33;100981.09;4995231;28;20179;-78
2022/12/04 09:36:30;;;;;;;21.77;15.07;;;;;;;8.72;86.74;100867.16;4981648;28;20266;-78
2022/12/04 09:38:59;;;;;;;20.60;16.25;;;;;;;9.33;86.13;100956.91;4979009;28;20606;-76
2022/12/04 09:41:47;;;;;;;23.77;17.05;;;;;;;8.97;86.27;100889.91;4993297;28;20056;-79
2022/12/04 09:44:18;;;;;;;21.90;17.42;;;;;;;9.48;85.96;100970.75;4975839;28;20385;-78
2022/12/04 09:46:59;;;;;;;19.77;14.57;;;;;;;9.04;85.75;100913.28;4975877;28;20087;-77
2022/12/04 09:49:44;;;;;;;24.05;16.55;;;;;;;9.46;85.90;100991.22;4976034;28;20291;-80
2022/12/04 09:52:33;;;;;;;29.60;18.27;;;;;;;9.51;86.85;101002.31;4975987;28;20053;-79
2022/12/04 09:55:04;;;;;;;22.60;17.02;;;;;;;9.18;86.21;100937.75;4977031;28;20045;-79
2022/12/04 09:57:38;;;;;;;22.35;16.77;;;;;;;9.45;85.83;100984.25;4976053;28;20049;-79
2022/12/04 10:00:06;;;;;;;21.75;15.63;;;;;;;9.67;86.01;101006.44;4976808;28;20300;-79
2022/12/04 10:02:38;;;;;;;22.52;15.98;;;;;;;9.70;85.85;101003.53;4981229;28;20644;-79
2022/12/04 10:05:26;;;;;;;21.27;15.13;;;;;;;9.63;86.22;100979.31;4986831;28;20084;-79
2022/12/04 10:08:05;;;;;;;22.98;15.23;;;;;;;9.61;85.41;100971.50;4979549;28;20192;-79
2022/12/04 10:11:07;;;;;;;20.38;15.38;;;;;;;9.85;86.34;101004.94;4975619;28;20393;-78
2022/12/04 10:14:08;;;;;;;16.40;14.20;;;;;;;9.95;84.97;101010.38;4968299;28;20477;-79
2022/12/04 10:17:06;;;;;;;19.90;14.52;;;;;;;10.03;85.30;101011.47;4977879;28;20069;-79
2022/12/04 10:19:54;;;;;;;17.75;13.25;;;;;;;9.99;85.11;101012.66;4977170;28;20049;-79
2022/12/04 10:22:22;;;;;;;15.88;12.00;;;;;;;9.96;84.89;101010.25;4977355;28;20060;-78
2022/12/04 10:24:53;;;;;;;15.23;12.02;;;;;;;9.89;84.23;100981.69;4978656;28;20151;-77
2022/12/04 10:27:48;;;;;;;15.88;12.18;;;;;;;10.16;84.25;101007.81;4989081;28;20340;-79
2022/12/04 10:30:17;;;;;;;15.43;12.07;;;;;;;10.10;84.56;101016.25;4985850;28;20045;-78
2022/12/04 10:32:51;;;;;;;18.45;12.65;;;;;;;10.09;84.11;101006.63;4985038;28;20338;-78
2022/12/04 10:35:18;;;;;;;15.20;12.20;;;;;;;8.76;83.71;100796.28;4982765;28;20351;-80
2022/12/04 10:37:57;;;;;;;15.57;10.85;;;;;;;10.20;83.31;100998.66;4979722;28;20741;-79
2022/12/04 10:40:23;;;;;;;14.73;11.55;;;;;;;10.30;83.79;101012.88;4960167;28;20053;-77
2022/12/04 10:43:28;;;;;;;12.68;10.10;;;;;;;10.35;81.52;101013.34;4959235;28;20057;-77
2022/12/04 10:45:55;;;;;;;15.27;11.02;;;;;;;10.39;82.31;101014.78;4961634;28;20055;-78
2022/12/04 10:48:42;;;;;;;9.93;8.93;;;;;;;9.88;81.26;100903.09;4960965;28;20061;-79
2022/12/04 10:51:17;;;;;;;12.20;10.48;;;;;;;10.57;81.61;100998.31;4959893;28;20606;-78
2022/12/04 10:53:48;;;;;;;13.60;11.60;;;;;;;10.50;81.40;101015.72;4957676;28;20058;-79
2022/12/04 10:56:24;;;;;;;14.00;11.35;;;;;;;10.41;82.16;100999.59;4978884;28;21103;-79
2022/12/04 10:59:16;;;;;;;13.40;10.75;;;;;;;10.03;82.23;100934.53;4967417;28;20042;-78
2022/12/04 11:01:43;;;;;;;13.18;10.35;;;;;;;10.22;82.10;100971.03;4974068;28;20092;-79
2022/12/04 11:04:29;;;;;;;10.73;9.23;;;;;;;10.02;81.05;100939.94;4971035;28;20129;-79
2022/12/04 11:07:17;;;;;;;14.77;9.45;;;;;;;9.99;82.41;100943.69;4958403;28;20137;-78
2022/12/04 11:09:58;;;;;;;12.05;8.70;;;;;;;10.26;82.94;100947.72;4991292;28;20684;-78
2022/12/04 11:12:25;;;;;;;7.32;6.50;;;;;;;10.65;81.12;100998.53;4997911;28;20066;-79
2022/12/04 11:15:27;;;;;;;7.97;6.03;;;;;;;10.58;80.54;100992.03;5000807;28;20265;-79
2022/12/04 11:17:57;;;;;;;4.45;3.88;;;;;;;10.78;78.38;101014.28;4986152;28;20050;-79
2022/12/04 11:20:26;;;;;;;5.95;4.07;;;;;;;10.82;78.90;101008.56;4996625;28;20054;-79
2022/12/04 11:22:58;;;;;;;5.50;4.40;;;;;;;10.81;78.85;101006.91;4992006;28;20050;-79
2022/12/04 11:25:33;;;;;;;4.80;4.25;;;;;;;10.73;78.99;100992.56;5000576;28;20060;-80
2022/12/04 11:28:02;;;;;;;6.22;5.22;;;;;;;10.81;78.90;101008.72;4998316;28;20583;-79
2022/12/04 11:30:35;;;;;;;7.65;6.00;;;;;;;10.71;79.29;100970.63;4999937;28;20061;-78
2022/12/04 11:33:04;;;;;;;5.68;5.05;;;;;;;11.00;79.01;101002.72;4984790;28;20046;-79
2022/12/04 11:35:31;;;;;;;5.57;5.00;;;;;;;10.88;78.96;100999.28;4978653;28;20480;-79
2022/12/04 11:38:04;;;;;;;6.13;5.05;;;;;;;10.92;79.60;101008.66;4980534;28;20061;-77
2022/12/04 11:40:33;;;;;;;5.45;4.93;;;;;;;11.01;79.43;101009.69;4999321;28;20568;-79
2022/12/04 11:43:11;;;;;;;6.60;5.50;;;;;;;10.84;79.12;100981.91;4998792;28;20049;-77
2022/12/04 11:45:38;;;;;;;6.47;5.70;;;;;;;10.36;79.36;100914.16;4997419;28;20065;-79
2022/12/04 11:48:17;;;;;;;6.78;5.85;;;;;;;10.91;79.41;101007.81;4999364;28;20056;-79
2022/12/04 11:51:07;;;;;;;5.68;4.88;;;;;;;10.93;79.30;101014.81;5000009;28;20057;-79
2022/12/04 11:53:47;;;;;;;7.10;5.55;;;;;;;10.99;79.70;100999.19;4997991;28;20323;-78
2022/12/04 11:56:37;;;;;;;5.80;5.30;;;;;;;11.17;78.22;100991.50;4996900;28;20064;-79
2022/12/04 11:59:38;;;;;;;6.53;5.90;;;;;;;11.30;77.51;101004.56;4981213;28;20885;-79
2022/12/04 12:02:20;;;;;;;8.43;6.70;;;;;;;10.96;76.52;100942.84;4959727;28;20126;-78